Terminal Aerodrome Forecast
Issued by NWS Atlanta, GA

Home | Current Version | Previous Version | Text Only | Print | Product List | Glossary On
Versions: 1 2 3 4 5 6 7 8 9 10 11 12 13 14 15 16 17 18 19 20
000
FTUS42 KFFC 021748
TAFMCN
TAF
KMCN 021748Z 0218/0318 35012KT P6SM SKC
     FM022300 02005KT P6SM SCT250
     FM030300 04004KT P6SM BKN250
     FM031500 06008KT P6SM BKN250=

USA.gov is the U.S. government's official web portal to all federal, state and local government web resources and services.